Time;durP1;ratioP1;P1;durP2;ratioP2;P2;SDS_P1;SDS_P2;PMS_P1;PMS_P2;Temp;Humidity;BMP_temperature;BMP_pressure;BME280_temperature;BME280_humidity;BME280_pressure;Samples;Min_cycle;Max_cycle;Signal;HPM_P1;HPM_P2
2021/09/20 00:00:17;;;;;;;7.93;7.03;;;15.70;95.00;;;;;;6159810;23;20425;-87
2021/09/20 00:02:45;;;;;;;7.80;7.00;;;15.70;95.10;;;;;;6174621;23;20413;-87
2021/09/20 00:05:12;;;;;;;7.97;7.13;;;15.70;95.30;;;;;;6170570;23;20491;-86
2021/09/20 00:07:52;;;;;;;7.37;6.77;;;15.70;95.10;;;;;;6173883;23;20748;-87
2021/09/20 00:10:23;;;;;;;10.00;7.90;;;15.80;95.00;;;;;;6169416;23;20413;-88
2021/09/20 00:12:55;;;;;;;11.30;7.30;;;15.70;95.10;;;;;;6174639;23;21445;-87
2021/09/20 00:15:25;;;;;;;7.40;6.70;;;15.70;94.80;;;;;;6178255;23;20417;-87
2021/09/20 00:17:59;;;;;;;8.10;7.40;;;15.50;95.20;;;;;;6179911;23;20486;-87
2021/09/20 00:20:34;;;;;;;7.97;7.27;;;15.60;95.30;;;;;;6178710;23;20377;-87
2021/09/20 00:23:01;;;;;;;7.87;7.07;;;15.50;95.50;;;;;;6184740;23;21009;-88
2021/09/20 00:25:28;;;;;;;7.77;6.97;;;15.50;95.80;;;;;;6177992;23;20408;-87
2021/09/20 00:27:54;;;;;;;8.43;7.47;;;15.40;95.90;;;;;;6189380;23;20439;-86
2021/09/20 00:30:21;;;;;;;7.80;7.10;;;15.30;96.20;;;;;;6189522;23;20428;-86
2021/09/20 00:32:50;;;;;;;9.27;8.17;;;15.40;96.30;;;;;;6184018;23;21123;-87
2021/09/20 00:35:20;;;;;;;7.83;7.13;;;15.50;95.80;;;;;;6200026;23;20426;-85
2021/09/20 00:37:51;;;;;;;7.47;6.77;;;15.50;95.70;;;;;;6198877;23;20461;-86
2021/09/20 00:40:21;;;;;;;7.33;6.63;;;15.40;95.70;;;;;;6182389;23;20729;-84
2021/09/20 00:42:51;;;;;;;8.67;7.77;;;15.30;95.90;;;;;;6188598;23;20469;-86
2021/09/20 00:45:20;;;;;;;6.80;6.20;;;15.10;96.50;;;;;;6184852;23;20409;-87
2021/09/20 00:47:54;;;;;;;8.00;7.20;;;15.10;96.70;;;;;;6196681;23;20433;-86
2021/09/20 00:50:23;;;;;;;7.33;6.63;;;15.30;96.60;;;;;;6198462;23;20585;-88
2021/09/20 00:52:52;;;;;;;7.67;7.00;;;15.20;96.70;;;;;;6196954;23;20415;-86
2021/09/20 00:55:24;;;;;;;7.33;6.73;;;15.20;96.80;;;;;;6188189;23;20443;-87
2021/09/20 00:57:58;;;;;;;8.40;7.60;;;15.30;96.70;;;;;;6198159;23;20483;-87
2021/09/20 01:00:26;;;;;;;8.47;7.67;;;15.30;96.40;;;;;;6193134;23;20460;-87
2021/09/20 01:03:00;;;;;;;8.77;7.97;;;15.40;96.50;;;;;;6195439;23;20397;-87
2021/09/20 01:05:30;;;;;;;7.87;7.17;;;15.30;96.60;;;;;;6197047;23;21065;-87
2021/09/20 01:07:57;;;;;;;7.87;6.70;;;15.30;96.50;;;;;;6195561;23;20535;-87
2021/09/20 01:10:31;;;;;;;10.30;7.33;;;15.30;96.60;;;;;;6180481;23;21111;-86
2021/09/20 01:13:00;;;;;;;7.70;6.93;;;15.30;96.80;;;;;;6188664;23;20488;-86
2021/09/20 01:15:37;;;;;;;8.73;7.70;;;15.20;96.80;;;;;;6169096;23;20944;-86
2021/09/20 01:18:07;;;;;;;7.67;6.93;;;15.30;96.60;;;;;;6174895;23;20465;-87
2021/09/20 01:20:48;;;;;;;8.40;7.60;;;15.30;96.60;;;;;;6180001;23;20445;-88
2021/09/20 01:23:19;;;;;;;7.70;7.00;;;15.20;96.70;;;;;;6163067;23;20514;-87
2021/09/20 01:25:47;;;;;;;7.33;6.63;;;15.20;96.90;;;;;;6169012;23;20420;-85
2021/09/20 01:28:13;;;;;;;8.73;8.03;;;15.20;96.60;;;;;;6177748;23;20425;-86
2021/09/20 01:30:42;;;;;;;7.57;6.80;;;15.20;96.50;;;;;;6170662;23;20408;-86
2021/09/20 01:33:14;;;;;;;8.07;7.27;;;15.10;96.80;;;;;;6161747;23;21202;-85
2021/09/20 01:35:41;;;;;;;7.77;7.07;;;15.00;97.10;;;;;;6178364;23;20413;-86
2021/09/20 01:38:08;;;;;;;8.37;7.57;;;15.00;97.20;;;;;;6176304;23;20425;-86
2021/09/20 01:40:34;;;;;;;8.03;7.33;;;14.90;97.60;;;;;;6158095;23;20411;-86
2021/09/20 01:43:02;;;;;;;7.80;7.10;;;14.90;97.60;;;;;;6174896;23;20496;-87
2021/09/20 01:45:30;;;;;;;7.57;6.97;;;14.90;97.60;;;;;;6175411;23;20409;-86
2021/09/20 01:47:57;;;;;;;7.73;7.03;;;14.80;97.80;;;;;;6174212;23;20437;-86
2021/09/20 01:50:26;;;;;;;8.30;7.50;;;14.70;98.20;;;;;;6170128;23;20416;-86
2021/09/20 01:52:53;;;;;;;11.67;6.50;;;14.70;98.30;;;;;;6178236;23;20964;-86
2021/09/20 01:55:20;;;;;;;7.60;6.90;;;14.80;98.30;;;;;;6177457;23;20504;-85
2021/09/20 01:57:47;;;;;;;8.03;7.30;;;14.70;98.30;;;;;;6173272;23;20433;-87
2021/09/20 02:00:18;;;;;;;9.00;7.33;;;14.70;98.30;;;;;;6165069;23;20420;-86
2021/09/20 02:02:48;;;;;;;10.80;8.03;;;14.80;98.30;;;;;;6176496;23;20427;-89
2021/09/20 02:05:21;;;;;;;9.10;8.30;;;14.80;98.20;;;;;;6159604;23;20531;-88
2021/09/20 02:07:51;;;;;;;7.77;7.07;;;14.90;98.00;;;;;;6176320;23;20984;-87
2021/09/20 02:10:20;;;;;;;7.10;6.50;;;14.90;98.10;;;;;;6167008;23;20752;-86
2021/09/20 02:12:47;;;;;;;7.20;6.50;;;15.00;97.90;;;;;;6173699;23;20435;-86
2021/09/20 02:15:23;;;;;;;8.57;7.40;;;14.80;98.10;;;;;;6168173;23;20476;-86
2021/09/20 02:17:50;;;;;;;9.03;8.10;;;14.70;98.20;;;;;;6177376;23;21097;-87
2021/09/20 02:20:36;;;;;;;8.07;7.37;;;14.60;98.60;;;;;;6169157;23;20744;-86
2021/09/20 02:23:16;;;;;;;7.80;7.10;;;14.70;98.50;;;;;;6176805;23;20492;-85
2021/09/20 02:25:44;;;;;;;8.27;7.47;;;14.80;98.30;;;;;;6178045;23;20944;-86
2021/09/20 02:28:15;;;;;;;8.07;7.37;;;14.60;98.40;;;;;;6173999;23;20461;-86
2021/09/20 02:30:57;;;;;;;9.27;8.37;;;14.70;98.40;;;;;;6182065;23;20390;-86
2021/09/20 02:33:37;;;;;;;7.77;7.07;;;14.50;98.40;;;;;;6175203;23;20903;-86
2021/09/20 02:36:06;;;;;;;8.20;7.37;;;14.40;98.70;;;;;;6154654;23;20423;-87
2021/09/20 02:38:42;;;;;;;7.13;6.43;;;14.40;99.00;;;;;;6173189;23;20482;-86
2021/09/20 02:41:13;;;;;;;7.90;7.20;;;14.40;99.20;;;;;;6166734;23;20398;-86
2021/09/20 02:43:43;;;;;;;8.67;7.87;;;14.50;99.10;;;;;;6180535;23;20449;-86
2021/09/20 02:46:26;;;;;;;9.60;7.97;;;14.60;98.90;;;;;;6164096;23;20413;-86
2021/09/20 02:49:01;;;;;;;8.23;7.50;;;14.70;98.60;;;;;;6175060;23;20424;-86
2021/09/20 02:51:28;;;;;;;7.47;6.77;;;14.60;98.30;;;;;;6168248;23;20413;-87
2021/09/20 02:53:56;;;;;;;8.10;7.30;;;14.50;98.40;;;;;;6185962;23;21058;-86
2021/09/20 02:56:23;;;;;;;9.43;6.83;;;14.40;98.60;;;;;;6183595;23;20420;-86
2021/09/20 02:58:50;;;;;;;8.43;7.63;;;14.50;98.50;;;;;;6194610;23;20441;-86
2021/09/20 03:01:17;;;;;;;8.20;7.40;;;14.50;98.20;;;;;;6193394;23;20374;-87
2021/09/20 03:03:44;;;;;;;8.10;7.30;;;14.50;98.10;;;;;;6176266;23;20437;-85
2021/09/20 03:06:10;;;;;;;8.33;7.53;;;14.40;98.20;;;;;;6172604;23;20994;-86
2021/09/20 03:08:39;;;;;;;7.90;7.20;;;14.30;98.60;;;;;;6174374;23;20978;-87
2021/09/20 03:11:13;;;;;;;7.03;6.33;;;14.30;99.00;;;;;;6166873;23;20412;-87
2021/09/20 03:13:40;;;;;;;7.20;6.50;;;14.30;98.90;;;;;;6173520;23;20498;-86
2021/09/20 03:16:16;;;;;;;7.60;6.80;;;14.20;98.90;;;;;;6174689;23;20413;-86
2021/09/20 03:18:52;;;;;;;7.53;6.83;;;14.50;98.60;;;;;;6176440;23;20424;-86
2021/09/20 03:21:29;;;;;;;7.97;7.17;;;14.30;98.40;;;;;;6175611;23;20417;-86
2021/09/20 03:23:56;;;;;;;8.50;6.67;;;14.30;98.80;;;;;;6173992;23;20500;-87
2021/09/20 03:26:27;;;;;;;8.40;7.60;;;14.20;99.10;;;;;;6168890;23;20419;-86
2021/09/20 03:28:57;;;;;;;10.73;7.10;;;14.40;98.90;;;;;;6178537;23;20421;-87
2021/09/20 03:31:29;;;;;;;7.57;6.87;;;14.50;98.10;;;;;;6170323;23;20409;-87
2021/09/20 03:33:59;;;;;;;10.10;7.40;;;14.40;98.10;;;;;;6177684;23;20413;-86
2021/09/20 03:36:29;;;;;;;8.30;7.50;;;14.30;98.50;;;;;;6172127;23;20413;-86
2021/09/20 03:39:10;;;;;;;8.70;7.33;;;14.30;98.60;;;;;;6171472;23;20466;-86
2021/09/20 03:41:50;;;;;;;7.27;6.57;;;14.20;98.60;;;;;;6165156;23;20413;-86
2021/09/20 03:44:20;;;;;;;8.30;6.70;;;14.20;98.90;;;;;;6171035;23;20839;-85
2021/09/20 03:46:49;;;;;;;7.50;6.70;;;14.30;98.90;;;;;;6171533;23;20413;-87
2021/09/20 03:49:16;;;;;;;7.40;6.70;;;14.30;98.70;;;;;;6160809;23;20413;-86
2021/09/20 03:51:46;;;;;;;11.30;7.37;;;14.20;98.50;;;;;;6043640;23;20425;-86
2021/09/20 03:54:18;;;;;;;8.33;7.47;;;14.20;98.70;;;;;;6155279;23;20419;-86
2021/09/20 03:56:58;;;;;;;7.87;7.17;;;14.10;98.90;;;;;;6174216;23;20534;-86
2021/09/20 03:59:30;;;;;;;8.80;7.90;;;14.20;98.80;;;;;;6161408;23;20428;-86
2021/09/20 04:02:05;;;;;;;8.43;7.57;;;14.20;98.80;;;;;;6190807;23;20444;-86
2021/09/20 04:04:32;;;;;;;8.40;7.60;;;14.30;98.80;;;;;;6184263;23;20706;-87
2021/09/20 04:07:03;;;;;;;7.73;6.93;;;14.20;98.90;;;;;;6185104;23;20432;-86
2021/09/20 04:09:32;;;;;;;9.40;7.33;;;14.20;98.90;;;;;;6173960;23;20413;-87
2021/09/20 04:12:02;;;;;;;7.97;7.17;;;14.10;99.00;;;;;;6178277;23;20754;-87
2021/09/20 04:14:31;;;;;;;9.93;7.90;;;14.10;99.20;;;;;;6177202;23;20861;-85
2021/09/20 04:16:58;;;;;;;7.80;7.00;;;14.30;99.00;;;;;;6179797;23;20479;-86
2021/09/20 04:19:27;;;;;;;10.03;7.00;;;14.30;98.70;;;;;;6168330;23;20504;-86
2021/09/20 04:22:07;;;;;;;9.60;7.13;;;14.20;98.70;;;;;;6173277;23;20397;-86
2021/09/20 04:24:34;;;;;;;8.20;7.30;;;14.10;99.00;;;;;;6178446;23;20533;-87
2021/09/20 04:27:04;;;;;;;7.13;6.43;;;14.20;98.60;;;;;;6161940;23;20425;-87
2021/09/20 04:29:33;;;;;;;8.63;7.80;;;14.30;98.70;;;;;;6176251;23;20441;-86
2021/09/20 04:32:05;;;;;;;9.17;8.17;;;14.20;98.50;;;;;;6181095;23;20413;-86
2021/09/20 04:34:32;;;;;;;7.77;6.97;;;14.10;98.70;;;;;;6173420;23;20389;-87
2021/09/20 04:37:00;;;;;;;9.33;8.20;;;14.10;98.90;;;;;;6176129;23;20433;-86
2021/09/20 04:39:32;;;;;;;9.10;8.20;;;14.10;99.10;;;;;;6179526;23;21262;-89
2021/09/20 04:42:00;;;;;;;10.07;7.67;;;14.10;98.90;;;;;;6174991;23;20413;-87
2021/09/20 04:44:29;;;;;;;7.83;7.13;;;14.10;99.00;;;;;;6176712;23;20444;-85
2021/09/20 04:46:56;;;;;;;8.67;7.77;;;14.20;99.00;;;;;;6176881;23;20425;-86
2021/09/20 04:49:26;;;;;;;9.50;8.03;;;14.20;98.40;;;;;;6167147;23;20421;-85
2021/09/20 04:51:53;;;;;;;8.17;7.37;;;14.10;98.60;;;;;;6171773;23;20499;-87
2021/09/20 04:54:20;;;;;;;12.00;9.07;;;14.10;98.90;;;;;;6182593;23;21149;-86
2021/09/20 04:56:56;;;;;;;8.77;7.83;;;14.10;98.70;;;;;;6180516;23;21113;-87
2021/09/20 04:59:32;;;;;;;8.10;7.40;;;14.00;99.00;;;;;;6176544;23;20963;-87
2021/09/20 05:02:08;;;;;;;12.03;7.90;;;13.90;99.10;;;;;;6179871;23;20950;-89
2021/09/20 05:04:35;;;;;;;8.00;7.20;;;14.10;98.90;;;;;;6176290;23;20463;-87
2021/09/20 05:07:15;;;;;;;7.60;6.90;;;14.00;98.70;;;;;;6183565;23;20435;-87
2021/09/20 05:09:42;;;;;;;7.70;6.63;;;14.00;99.00;;;;;;6175323;23;20652;-86
2021/09/20 05:12:11;;;;;;;8.10;7.30;;;13.90;98.60;;;;;;6170050;23;20771;-87
2021/09/20 05:14:38;;;;;;;9.30;7.70;;;13.80;98.80;;;;;;6180591;23;20417;-86
2021/09/20 05:17:18;;;;;;;9.57;7.77;;;13.80;99.00;;;;;;6163241;23;20425;-86
2021/09/20 05:19:48;;;;;;;10.00;7.93;;;13.90;98.90;;;;;;6172891;23;20444;-86
2021/09/20 05:22:23;;;;;;;7.53;6.83;;;13.80;98.90;;;;;;6171360;23;20729;-88
2021/09/20 05:24:50;;;;;;;8.67;7.40;;;13.70;99.10;;;;;;6178615;23;20766;-87
2021/09/20 05:27:17;;;;;;;8.27;7.10;;;13.80;99.00;;;;;;6169313;23;20433;-87
2021/09/20 05:29:47;;;;;;;7.80;7.10;;;13.90;98.70;;;;;;6179932;23;20901;-87
2021/09/20 05:32:16;;;;;;;8.33;7.53;;;13.90;98.70;;;;;;6180799;23;21059;-86
2021/09/20 05:34:43;;;;;;;8.57;7.67;;;14.00;98.50;;;;;;6180441;23;20738;-87
2021/09/20 05:37:10;;;;;;;7.37;6.67;;;14.00;98.40;;;;;;6183146;23;20433;-86
2021/09/20 05:39:40;;;;;;;8.33;7.40;;;14.00;98.40;;;;;;6182239;23;20435;-86
2021/09/20 05:42:06;;;;;;;9.10;6.90;;;13.90;98.50;;;;;;6172236;23;20783;-86
2021/09/20 05:44:33;;;;;;;6.67;6.07;;;13.90;98.80;;;;;;6179255;23;20490;-85
2021/09/20 05:47:00;;;;;;;8.10;7.30;;;14.00;98.50;;;;;;6177576;23;20460;-86
2021/09/20 05:49:29;;;;;;;7.93;7.07;;;14.10;98.30;;;;;;6183202;23;20408;-85
2021/09/20 05:51:56;;;;;;;7.60;6.90;;;14.10;98.40;;;;;;6179373;23;20409;-85
2021/09/20 05:54:36;;;;;;;9.07;8.13;;;14.20;98.30;;;;;;6167103;23;20749;-87
2021/09/20 05:57:19;;;;;;;8.63;7.83;;;14.10;98.20;;;;;;6179871;23;20437;-85
2021/09/20 05:59:58;;;;;;;8.63;6.90;;;14.20;98.40;;;;;;6178727;23;20443;-86
2021/09/20 06:02:37;;;;;;;8.07;7.17;;;14.20;97.80;;;;;;6174505;23;20413;-89
2021/09/20 06:05:13;;;;;;;9.07;7.80;;;14.20;98.20;;;;;;6179015;23;20448;-86
2021/09/20 06:07:48;;;;;;;8.90;7.93;;;14.20;98.30;;;;;;6178938;23;20459;-85
2021/09/20 06:10:21;;;;;;;10.60;7.63;;;14.30;98.10;;;;;;6174514;23;20408;-86
2021/09/20 06:12:56;;;;;;;8.50;7.53;;;14.20;98.00;;;;;;6191638;23;20456;-86
2021/09/20 06:15:36;;;;;;;7.67;6.83;;;14.20;98.10;;;;;;6192685;23;20421;-86
2021/09/20 06:18:06;;;;;;;8.43;6.60;;;14.40;98.00;;;;;;6171815;23;20493;-84
2021/09/20 06:20:34;;;;;;;7.83;7.03;;;14.50;97.50;;;;;;6177464;23;20484;-87
2021/09/20 06:23:04;;;;;;;7.87;7.00;;;14.40;97.40;;;;;;6164343;23;20463;-87
2021/09/20 06:25:31;;;;;;;8.50;7.70;;;14.60;97.20;;;;;;6170305;23;20915;-86
2021/09/20 06:28:02;;;;;;;11.60;8.30;;;14.80;96.40;;;;;;6171848;23;20433;-86
2021/09/20 06:30:31;;;;;;;7.90;6.80;;;14.80;96.60;;;;;;6169362;23;20409;-85
2021/09/20 06:33:00;;;;;;;7.70;7.00;;;14.90;96.40;;;;;;6178441;23;20532;-85
2021/09/20 06:35:27;;;;;;;9.07;7.77;;;15.00;95.70;;;;;;6166747;23;20405;-86
2021/09/20 06:37:54;;;;;;;9.00;6.47;;;15.00;95.80;;;;;;6176187;23;20431;-87
2021/09/20 06:40:21;;;;;;;7.97;7.17;;;14.90;96.20;;;;;;6169087;23;20405;-86
2021/09/20 06:42:48;;;;;;;14.43;6.90;;;14.90;96.20;;;;;;6175778;23;20406;-86
2021/09/20 06:45:15;;;;;;;11.73;7.27;;;15.00;96.10;;;;;;6164430;23;20512;-86
2021/09/20 06:47:48;;;;;;;8.60;7.67;;;15.10;95.60;;;;;;6181456;23;20487;-86
2021/09/20 06:50:21;;;;;;;8.80;7.23;;;15.10;95.50;;;;;;6177573;23;20480;-87
2021/09/20 06:52:57;;;;;;;13.03;7.70;;;15.10;95.40;;;;;;6169050;23;20420;-87
2021/09/20 06:55:23;;;;;;;7.30;6.60;;;15.10;95.80;;;;;;6166027;23;20389;-85
2021/09/20 06:57:53;;;;;;;7.47;6.77;;;15.30;95.40;;;;;;6171803;23;20608;-86
2021/09/20 07:00:20;;;;;;;8.27;6.80;;;15.40;94.90;;;;;;6172663;23;20983;-87
2021/09/20 07:02:52;;;;;;;6.93;6.30;;;15.50;94.80;;;;;;6171849;23;20765;-85
2021/09/20 07:05:20;;;;;;;8.43;7.60;;;15.60;94.40;;;;;;6170955;23;21244;-86
2021/09/20 07:08:09;;;;;;;9.17;7.67;;;15.60;94.30;;;;;;6176408;23;20437;-86
2021/09/20 07:10:36;;;;;;;8.30;6.97;;;15.90;94.70;;;;;;6169228;23;20492;-86
2021/09/20 07:13:33;;;;;;;7.60;6.50;;;17.30;92.70;;;;;;6174927;23;20419;-86
2021/09/20 07:16:15;;;;;;;6.93;6.00;;;19.10;91.10;;;;;;6180572;22;20457;-87
2021/09/20 07:18:55;;;;;;;6.57;5.97;;;21.60;80.30;;;;;;6173417;23;20833;-86
2021/09/20 07:21:51;;;;;;;6.60;6.00;;;21.90;74.50;;;;;;6172564;23;20504;-88
2021/09/20 07:24:37;;;;;;;6.20;5.70;;;21.30;75.40;;;;;;6174689;23;20784;-88
2021/09/20 07:27:17;;;;;;;8.07;5.90;;;20.30;76.10;;;;;;6178105;23;20437;-86
2021/09/20 07:29:54;;;;;;;6.00;5.43;;;19.70;78.50;;;;;;6177841;23;20400;-85
2021/09/20 07:32:27;;;;;;;7.03;6.10;;;18.80;80.30;;;;;;6168452;23;20409;-87
2021/09/20 07:35:04;;;;;;;9.67;6.40;;;18.40;82.50;;;;;;6162518;23;20523;-86
2021/09/20 07:37:52;;;;;;;6.90;6.30;;;18.20;83.40;;;;;;6171997;23;20429;-88
2021/09/20 07:40:44;;;;;;;7.30;5.87;;;18.00;83.50;;;;;;6175874;23;21066;-86
2021/09/20 07:43:33;;;;;;;7.10;6.40;;;17.50;84.80;;;;;;6178105;23;21331;-87
2021/09/20 07:46:06;;;;;;;5.90;5.40;;;17.90;85.40;;;;;;6149707;23;20756;-87
2021/09/20 07:48:39;;;;;;;6.80;6.10;;;18.00;84.00;;;;;;6175868;23;20462;-87
2021/09/20 07:51:24;;;;;;;7.77;6.20;;;17.90;85.30;;;;;;6161571;23;20960;-86
2021/09/20 07:53:56;;;;;;;7.20;6.50;;;18.30;84.10;;;;;;6177435;23;20428;-88
2021/09/20 07:56:34;;;;;;;6.73;6.13;;;18.70;82.70;;;;;;6171792;23;20967;-87
2021/09/20 07:59:20;;;;;;;9.43;6.17;;;18.90;80.90;;;;;;6145661;23;20713;-87
2021/09/20 08:01:50;;;;;;;7.40;5.67;;;18.50;81.90;;;;;;6169333;23;20425;-87
2021/09/20 08:04:17;;;;;;;5.60;5.10;;;18.40;82.60;;;;;;6159813;23;20489;-86
2021/09/20 08:07:03;;;;;;;5.80;5.30;;;18.50;81.70;;;;;;6170768;23;20456;-86
2021/09/20 08:09:38;;;;;;;6.47;5.90;;;18.30;82.50;;;;;;6167069;23;20413;-87
2021/09/20 08:12:23;;;;;;;6.43;5.83;;;18.50;82.70;;;;;;6158406;23;20397;-85
2021/09/20 08:14:59;;;;;;;5.63;5.20;;;18.80;81.30;;;;;;6168480;23;20411;-85
2021/09/20 08:17:35;;;;;;;6.23;5.73;;;18.70;81.80;;;;;;6157910;23;20455;-87
2021/09/20 08:20:04;;;;;;;6.93;6.07;;;18.80;81.90;;;;;;6170327;23;20440;-87
2021/09/20 08:22:32;;;;;;;6.43;5.70;;;18.70;81.20;;;;;;6170601;23;20456;-85
2021/09/20 08:25:31;;;;;;;5.70;5.20;;;18.20;81.10;;;;;;6161136;23;20447;-86
2021/09/20 08:28:18;;;;;;;6.70;6.10;;;17.60;82.20;;;;;;6147319;23;20425;-86
2021/09/20 08:31:05;;;;;;;7.17;6.03;;;17.40;84.20;;;;;;6141981;23;20978;-85
2021/09/20 08:33:40;;;;;;;6.13;5.60;;;17.40;84.70;;;;;;6166615;23;20816;-86
2021/09/20 08:36:32;;;;;;;6.70;6.00;;;17.10;85.60;;;;;;6167917;23;20423;-86
2021/09/20 08:39:26;;;;;;;5.83;5.33;;;17.20;86.40;;;;;;6169729;23;20447;-86
2021/09/20 08:42:07;;;;;;;6.43;5.83;;;17.40;85.80;;;;;;6164282;23;20439;-86
2021/09/20 08:44:48;;;;;;;7.17;6.17;;;17.50;85.30;;;;;;6171341;23;20959;-86
2021/09/20 08:47:24;;;;;;;5.60;5.00;;;17.30;85.70;;;;;;6162346;23;20467;-85
2021/09/20 08:49:56;;;;;;;7.00;6.30;;;17.30;85.80;;;;;;6172315;23;20873;-87
2021/09/20 08:52:30;;;;;;;6.37;5.87;;;17.50;85.20;;;;;;6174148;23;20409;-86
2021/09/20 09:02:36;;;;;;;6.13;5.70;;;18.00;85.00;;;;;;5891300;23;20442;-87
2021/09/20 09:05:31;;;;;;;6.50;5.90;;;17.80;83.20;;;;;;5998914;23;20446;-86
2021/09/20 09:08:01;;;;;;;6.27;5.67;;;17.50;84.30;;;;;;5999391;23;20496;-87
2021/09/20 09:10:33;;;;;;;7.30;6.70;;;17.50;85.10;;;;;;6082129;23;20419;-87
2021/09/20 09:13:07;;;;;;;5.87;5.40;;;17.40;84.90;;;;;;6087819;23;21172;-89
2021/09/20 09:16:30;;;;;;;7.50;6.37;;;17.50;85.40;;;;;;6092260;23;20454;-85
2021/09/20 09:18:59;;;;;;;6.27;5.67;;;17.60;84.20;;;;;;6112504;23;20426;-86
2021/09/20 09:21:40;;;;;;;6.30;5.80;;;17.80;84.90;;;;;;6088961;23;20430;-87
2021/09/20 09:24:22;;;;;;;8.63;5.30;;;17.90;84.10;;;;;;6089033;23;20403;-86
2021/09/20 09:27:05;;;;;;;5.63;5.13;;;17.90;83.80;;;;;;6158829;23;20980;-87
2021/09/20 09:29:39;;;;;;;5.50;5.00;;;17.90;84.40;;;;;;6174998;23;20440;-87
2021/09/20 09:32:15;;;;;;;5.40;5.00;;;17.70;83.70;;;;;;6171289;23;20427;-88
2021/09/20 09:34:58;;;;;;;5.67;5.17;;;17.80;84.20;;;;;;6180638;23;20465;-85
2021/09/20 09:37:37;;;;;;;6.77;5.73;;;18.00;84.20;;;;;;6172574;23;20429;-87
2021/09/20 09:40:34;;;;;;;5.40;5.00;;;18.20;82.70;;;;;;6175225;23;20492;-87
2021/09/20 09:43:10;;;;;;;5.30;4.90;;;18.40;81.60;;;;;;6171312;23;20422;-87
2021/09/20 09:46:02;;;;;;;6.40;5.60;;;18.50;80.60;;;;;;6177140;23;20460;-85
2021/09/20 09:48:41;;;;;;;5.73;5.33;;;18.30;81.10;;;;;;6169361;23;20429;-85
2021/09/20 09:51:13;;;;;;;5.60;5.10;;;18.50;81.60;;;;;;6175227;23;20409;-87
2021/09/20 09:53:43;;;;;;;5.67;5.27;;;18.60;81.60;;;;;;6168541;23;20498;-85
2021/09/20 09:56:18;;;;;;;5.30;4.80;;;18.70;81.40;;;;;;6174340;23;20405;-85
2021/09/20 09:59:38;;;;;;;5.90;5.40;;;18.60;81.10;;;;;;6185170;23;20448;-86
2021/09/20 10:02:31;;;;;;;5.13;4.73;;;18.70;80.10;;;;;;6180391;23;20488;-87
2021/09/20 10:05:35;;;;;;;5.10;4.70;;;18.80;81.20;;;;;;6175972;23;20409;-88
2021/09/20 10:08:12;;;;;;;5.70;5.20;;;18.70;79.40;;;;;;6167977;23;20429;-89
2021/09/20 10:10:43;;;;;;;6.07;5.53;;;18.90;80.10;;;;;;6187682;23;20423;-86
2021/09/20 10:13:14;;;;;;;6.30;5.70;;;19.20;79.40;;;;;;6173833;23;20393;-86
2021/09/20 10:15:42;;;;;;;6.47;5.87;;;19.20;78.50;;;;;;6173686;23;20413;-86
2021/09/20 10:18:17;;;;;;;6.07;5.47;;;19.00;79.00;;;;;;6163130;23;20500;-87
2021/09/20 10:20:44;;;;;;;6.00;5.00;;;18.90;79.30;;;;;;6175749;23;20419;-86
2021/09/20 10:23:11;;;;;;;5.87;4.70;;;18.80;79.60;;;;;;6162329;23;20409;-85
2021/09/20 10:25:37;;;;;;;5.83;5.33;;;18.80;79.90;;;;;;6169546;23;20572;-85
2021/09/20 10:28:04;;;;;;;6.03;5.47;;;18.70;80.10;;;;;;6175523;23;20437;-86
2021/09/20 10:30:35;;;;;;;4.87;4.50;;;18.60;79.80;;;;;;6165612;23;21150;-86
2021/09/20 10:33:09;;;;;;;5.70;5.20;;;18.60;79.30;;;;;;6171140;23;20895;-85
2021/09/20 10:35:38;;;;;;;7.37;6.03;;;18.70;80.20;;;;;;6168884;23;20435;-85
2021/09/20 10:38:29;;;;;;;5.50;5.00;;;18.70;79.80;;;;;;6159653;23;20504;-85
2021/09/20 10:41:08;;;;;;;5.30;4.70;;;18.70;79.70;;;;;;6176528;23;20897;-85
2021/09/20 10:43:36;;;;;;;5.10;4.60;;;19.10;79.30;;;;;;6172280;23;20416;-87
2021/09/20 10:46:17;;;;;;;5.80;5.30;;;19.40;78.20;;;;;;6160496;23;20444;-85
2021/09/20 10:48:49;;;;;;;4.87;4.47;;;19.30;77.90;;;;;;6173710;23;20429;-85
2021/09/20 10:51:20;;;;;;;6.30;5.70;;;19.50;76.90;;;;;;6170835;23;20436;-87
2021/09/20 10:53:48;;;;;;;5.00;4.60;;;19.50;77.30;;;;;;6171068;23;20405;-86
2021/09/20 10:56:21;;;;;;;6.07;5.47;;;19.20;77.70;;;;;;6162167;23;20421;-87
2021/09/20 10:59:08;;;;;;;6.60;5.90;;;19.20;79.00;;;;;;6174022;23;20507;-87
2021/09/20 11:01:55;;;;;;;5.70;5.20;;;19.10;78.90;;;;;;6094112;23;20751;-86
2021/09/20 11:04:28;;;;;;;5.07;4.57;;;19.00;79.60;;;;;;6123343;23;20456;-88
2021/09/20 11:07:16;;;;;;;5.30;4.80;;;19.00;79.10;;;;;;6168489;23;20511;-85
2021/09/20 11:09:47;;;;;;;8.07;5.90;;;19.10;79.10;;;;;;6165388;23;20777;-86
2021/09/20 11:12:16;;;;;;;5.87;5.37;;;19.00;79.40;;;;;;6163529;23;20402;-85
2021/09/20 11:14:58;;;;;;;6.10;5.60;;;18.90;79.80;;;;;;6171234;23;20515;-87
2021/09/20 11:17:46;;;;;;;6.03;5.53;;;18.80;80.40;;;;;;6172427;23;20430;-86
2021/09/20 11:20:23;;;;;;;6.23;4.97;;;19.40;78.80;;;;;;6174911;23;20404;-87
2021/09/20 11:23:10;;;;;;;5.70;5.20;;;19.50;77.40;;;;;;6170825;23;20398;-86
2021/09/20 11:25:37;;;;;;;5.20;4.80;;;19.70;77.60;;;;;;6176411;23;20751;-84
2021/09/20 11:28:04;;;;;;;6.93;5.80;;;19.50;76.50;;;;;;6166700;23;20432;-85
2021/09/20 11:30:32;;;;;;;5.80;5.30;;;19.60;77.40;;;;;;6176372;23;20417;-85
2021/09/20 11:33:10;;;;;;;6.40;5.80;;;19.90;76.50;;;;;;6181238;23;20409;-85
2021/09/20 11:35:38;;;;;;;6.07;5.57;;;20.10;75.20;;;;;;6166262;23;21422;-86
2021/09/20 11:38:24;;;;;;;5.97;5.37;;;20.20;75.20;;;;;;6121457;23;20565;-86
2021/09/20 11:41:24;;;;;;;5.37;4.57;;;20.60;73.90;;;;;;6116339;23;20411;-86
2021/09/20 11:44:06;;;;;;;4.70;4.30;;;20.40;72.70;;;;;;6151191;23;20407;-86
2021/09/20 11:47:02;;;;;;;5.20;4.70;;;20.60;71.70;;;;;;6131758;23;20492;-85
2021/09/20 11:50:03;;;;;;;5.67;5.17;;;20.30;73.80;;;;;;6119697;23;20445;-86
2021/09/20 11:56:50;;;;;;;5.20;4.73;;;20.80;73.00;;;;;;6046112;23;21514;-85
2021/09/20 12:00:22;;;;;;;;;;;;;;;;;;;;;
2021/09/20 12:04:04;;;;;;;5.27;4.80;;;20.70;71.80;;;;;;6041461;23;21133;-86
2021/09/20 12:07:50;;;;;;;5.97;5.47;;;20.70;71.80;;;;;;6006265;23;20445;-86
2021/09/20 12:10:47;;;;;;;5.97;5.47;;;20.40;73.10;;;;;;6023393;23;20425;-85
2021/09/20 12:14:17;;;;;;;4.90;4.43;;;20.10;73.50;;;;;;6019536;23;20515;-85
2021/09/20 12:17:05;;;;;;;5.10;4.60;;;20.00;74.00;;;;;;6074845;23;21002;-86
2021/09/20 12:19:51;;;;;;;5.30;4.23;;;20.20;73.00;;;;;;6122752;23;20417;-86
2021/09/20 12:22:50;;;;;;;5.33;4.93;;;20.00;73.70;;;;;;6134926;23;20407;-85
2021/09/20 12:25:37;;;;;;;6.30;5.57;;;20.00;73.60;;;;;;6142071;23;20409;-86
2021/09/20 12:28:27;;;;;;;5.50;5.00;;;19.90;73.50;;;;;;6118497;23;20430;-85
2021/09/20 12:31:19;;;;;;;5.40;4.87;;;19.50;75.10;;;;;;6114384;23;20420;-87
2021/09/20 12:34:06;;;;;;;5.03;4.63;;;19.40;76.90;;;;;;6113767;23;20501;-86
2021/09/20 12:36:49;;;;;;;5.43;5.00;;;19.90;75.30;;;;;;6137906;23;20953;-84
2021/09/20 12:39:46;;;;;;;4.93;4.53;;;19.90;74.60;;;;;;6127211;23;20420;-86
2021/09/20 12:42:21;;;;;;;5.50;5.00;;;20.00;74.40;;;;;;6131944;23;21414;-86
2021/09/20 12:45:00;;;;;;;5.03;4.63;;;20.00;75.10;;;;;;6114538;23;20378;-85
2021/09/20 12:47:56;;;;;;;4.83;4.43;;;20.20;73.90;;;;;;6115568;23;20477;-86
2021/09/20 12:50:46;;;;;;;4.90;4.50;;;20.00;74.80;;;;;;6116221;23;20417;-85
2021/09/20 12:53:40;;;;;;;4.37;4.07;;;20.20;73.30;;;;;;6115835;23;20413;-88
2021/09/20 12:56:16;;;;;;;4.83;4.43;;;20.10;73.20;;;;;;6140732;23;20425;-86
2021/09/20 12:59:34;;;;;;;5.00;4.60;;;20.10;74.00;;;;;;6138089;23;20392;-85
2021/09/20 13:02:13;;;;;;;4.93;4.53;;;20.30;73.00;;;;;;6118220;23;20483;-88
2021/09/20 13:08:27;;;;;;;5.10;4.60;;;20.30;73.80;;;;;;6144408;23;20841;-86
2021/09/20 13:11:59;;;;;;;5.13;4.73;;;20.50;73.80;;;;;;6123277;23;21134;-87
2021/09/20 13:14:57;;;;;;;4.67;4.27;;;20.30;73.40;;;;;;6011837;23;20427;-85
2021/09/20 13:17:44;;;;;;;4.80;4.40;;;20.10;73.50;;;;;;6120788;23;20437;-85
2021/09/20 13:21:04;;;;;;;4.43;4.03;;;19.90;74.30;;;;;;6118783;23;20422;-84
2021/09/20 13:23:53;;;;;;;4.40;4.10;;;20.10;73.80;;;;;;6146746;23;20448;-87
2021/09/20 13:26:48;;;;;;;5.40;4.90;;;19.80;74.90;;;;;;6146572;23;20529;-85
2021/09/20 13:29:51;;;;;;;5.27;4.87;;;19.50;74.70;;;;;;6118645;23;20695;-85
2021/09/20 13:32:29;;;;;;;4.80;4.40;;;19.50;75.70;;;;;;6142486;23;20974;-85
2021/09/20 13:35:06;;;;;;;5.70;4.87;;;19.50;76.10;;;;;;6122016;23;20422;-86
2021/09/20 13:37:49;;;;;;;6.77;6.07;;;19.50;76.30;;;;;;6118551;23;20747;-86
2021/09/20 13:41:10;;;;;;;5.30;4.40;;;19.80;75.10;;;;;;6122816;23;20421;-85
2021/09/20 13:44:07;;;;;;;5.33;4.80;;;19.70;75.50;;;;;;6098107;23;20408;-86
2021/09/20 13:46:44;;;;;;;4.70;4.30;;;19.40;76.50;;;;;;6124352;23;20830;-84
2021/09/20 13:49:22;;;;;;;5.30;4.90;;;19.30;76.80;;;;;;6119945;23;20491;-84
2021/09/20 13:52:20;;;;;;;6.00;5.50;;;19.50;76.70;;;;;;6125734;23;20417;-85